Time;durP1;ratioP1;P1;durP2;ratioP2;P2;SDS_P1;SDS_P2;PMS_P1;PMS_P2;Temp;Humidity;BMP_temperature;BMP_pressure;BME280_temperature;BME280_humidity;BME280_pressure;Samples;Min_cycle;Max_cycle;Signal;HPM_P1;HPM_P2
2022/10/15 00:01:36;;;;;;;66.63;38.50;;;;;;;11.47;93.56;100166.24;3657445;79;34769;-88
2022/10/15 00:06:37;;;;;;;71.97;47.77;;;;;;;11.42;93.85;100163.86;3624553;79;99270;-87
2022/10/15 00:11:39;;;;;;;74.77;44.33;;;;;;;11.34;94.25;100160.09;3664973;79;34855;-88
2022/10/15 00:16:40;;;;;;;62.47;38.93;;;;;;;11.28;94.59;100157.52;3635678;79;99098;-89
2022/10/15 00:21:40;;;;;;;65.67;36.38;;;;;;;11.25;94.74;100157.70;3634070;79;34862;-90
2022/10/15 00:26:41;;;;;;;67.33;38.27;;;;;;;11.21;95.04;100151.38;3636059;79;98965;-87
2022/10/15 00:31:42;;;;;;;62.83;38.23;;;;;;;11.17;95.61;100156.69;3622244;79;29102;-87
2022/10/15 00:36:43;;;;;;;66.93;36.00;;;;;;;11.16;95.86;100146.24;3620657;80;98848;-87
2022/10/15 00:41:44;;;;;;;57.10;34.83;;;;;;;11.15;95.88;100132.85;3632302;79;26218;-87
2022/10/15 00:46:49;;;;;;;61.43;35.20;;;;;;;11.15;96.09;100142.48;3626737;79;98903;-87
2022/10/15 00:52:13;;;;;;;52.20;32.73;;;;;;;11.14;96.57;100131.28;3610101;79;35350;-86
2022/10/15 00:57:14;;;;;;;53.83;32.80;;;;;;;11.15;96.79;100134.23;3641783;79;98975;-87
2022/10/15 01:02:18;;;;;;;54.17;32.87;;;;;;;11.16;96.88;100120.08;3622268;79;29109;-87
2022/10/15 01:07:18;;;;;;;49.33;30.12;;;;;;;11.17;96.79;100121.64;3628213;79;98991;-87
2022/10/15 01:12:51;;;;;;;50.90;29.17;;;;;;;11.17;97.00;100125.78;3637765;79;29354;-86
2022/10/15 01:18:00;;;;;;;49.05;30.30;;;;;;;11.18;97.07;100115.56;3621368;79;99252;-88
2022/10/15 01:23:42;;;;;;;50.33;31.45;;;;;;;11.18;97.19;100109.45;3621916;79;34805;-86
2022/10/15 01:29:08;;;;;;;54.93;34.60;;;;;;;11.16;97.03;100105.50;3621564;79;99310;-86
2022/10/15 01:34:39;;;;;;;52.67;32.50;;;;;;;11.13;97.93;100087.02;3579041;79;34801;-87
2022/10/15 01:39:44;;;;;;;55.20;33.80;;;;;;;11.13;97.93;100087.02;3633152;79;99115;-86
2022/10/15 01:44:56;;;;;;;53.78;32.67;;;;;;;11.13;97.71;100084.27;3643115;79;35051;-86
2022/10/15 01:50:01;;;;;;;52.73;32.88;;;;;;;11.14;97.97;100066.55;3622315;79;99160;-87
2022/10/15 01:55:06;;;;;;;47.03;29.07;;;;;;;11.17;98.09;100069.92;3633039;79;34810;-87
2022/10/15 02:00:08;;;;;;;50.80;31.35;;;;;;;11.18;97.97;100060.48;3640681;79;98952;-86
2022/10/15 02:05:20;;;;;;;48.13;28.45;;;;;;;11.17;98.10;100067.17;3630113;79;35023;-87
2022/10/15 02:10:49;;;;;;;51.58;31.62;;;;;;;11.16;97.89;100058.10;3636127;79;98703;-88
2022/10/15 02:16:07;;;;;;;48.20;28.12;;;;;;;11.16;97.96;100051.80;3644166;78;35310;-90
2022/10/15 02:21:21;;;;;;;51.08;29.67;;;;;;;11.12;98.11;100045.52;3652815;79;36099;-87
2022/10/15 02:26:26;;;;;;;42.17;26.65;;;;;;;11.09;98.25;100044.33;3661507;79;99078;-87
2022/10/15 02:31:30;;;;;;;46.73;29.35;;;;;;;11.08;98.25;100037.82;3604580;79;34908;-89
2022/10/15 02:36:32;;;;;;;43.92;28.17;;;;;;;11.06;98.38;100031.31;3636030;78;98922;-89
2022/10/15 02:41:35;;;;;;;45.35;27.35;;;;;;;11.04;98.33;100024.05;3636762;78;35895;-89
2022/10/15 02:46:36;;;;;;;43.83;26.93;;;;;;;11.04;98.28;100026.80;3637151;78;99222;-88
2022/10/15 02:51:37;;;;;;;46.33;27.50;;;;;;;11.06;98.28;100018.92;3647289;78;25793;-88
2022/10/15 02:56:38;;;;;;;48.87;28.37;;;;;;;11.04;98.39;100020.49;3632682;79;99354;-87
2022/10/15 03:01:38;;;;;;;49.20;29.83;;;;;;;10.98;98.70;100010.47;3637173;79;27804;-88
2022/10/15 03:06:39;;;;;;;44.40;28.67;;;;;;;10.98;98.96;100004.95;3677442;78;99228;-90
2022/10/15 03:11:40;;;;;;;43.77;27.47;;;;;;;10.95;99.44;100000.22;3631734;79;32417;-91
2022/10/15 03:16:41;;;;;;;47.07;28.67;;;;;;;10.93;99.19;99996.27;3642210;78;99295;-89
2022/10/15 03:21:42;;;;;;;48.73;29.17;;;;;;;10.96;99.25;99991.38;3654722;78;32500;-87
2022/10/15 03:26:42;;;;;;;46.13;26.70;;;;;;;10.98;99.13;99993.94;3657669;78;99332;-91
2022/10/15 03:31:43;;;;;;;44.23;26.63;;;;;;;10.98;99.45;99985.68;3655911;79;27688;-89
2022/10/15 03:36:44;;;;;;;38.80;24.67;;;;;;;10.99;99.33;99976.81;3670688;79;98872;-88
2022/10/15 03:41:45;;;;;;;39.53;25.47;;;;;;;11.01;99.33;99977.23;3662890;78;26454;-88
2022/10/15 03:46:46;;;;;;;43.27;25.30;;;;;;;11.03;99.44;99975.66;3669046;78;98780;-88
2022/10/15 03:51:46;;;;;;;40.83;24.97;;;;;;;11.03;99.29;99965.23;3668884;78;26958;-91
2022/10/15 03:56:47;;;;;;;40.37;25.00;;;;;;;11.06;99.43;99965.84;3656202;78;98649;-86
2022/10/15 04:01:48;;;;;;;42.03;23.97;;;;;;;11.07;99.43;99970.92;3637913;79;26939;-88
2022/10/15 04:06:49;;;;;;;40.48;23.65;;;;;;;11.09;99.56;99965.84;3633732;79;98839;-88
2022/10/15 04:11:49;;;;;;;39.37;23.93;;;;;;;11.11;99.89;99975.06;3665508;78;33020;-87
2022/10/15 04:16:50;;;;;;;40.03;24.23;;;;;;;11.14;99.93;99973.72;3655272;78;99012;-88
2022/10/15 04:21:51;;;;;;;40.93;24.00;;;;;;;11.17;100.00;99970.77;3665735;78;32853;-87
2022/10/15 04:26:52;;;;;;;39.95;24.75;;;;;;;11.20;99.94;99968.59;3651776;78;99093;-87
2022/10/15 04:31:52;;;;;;;46.80;25.93;;;;;;;11.23;99.87;99976.85;3671475;78;32993;-88
2022/10/15 04:36:53;;;;;;;41.60;24.47;;;;;;;11.25;99.96;99966.25;3668797;78;99082;-88
2022/10/15 04:41:54;;;;;;;40.00;24.77;;;;;;;11.26;100.00;99960.13;3679261;78;32873;-86
2022/10/15 04:46:55;;;;;;;42.50;23.23;;;;;;;11.28;99.97;99956.42;3685595;78;99246;-87
2022/10/15 04:51:56;;;;;;;41.27;24.03;;;;;;;11.31;99.93;99961.92;3683402;78;32304;-87
2022/10/15 04:56:57;;;;;;;37.17;24.67;;;;;;;11.32;100.00;99954.43;3678613;78;98880;-87
2022/10/15 05:01:58;;;;;;;38.20;23.87;;;;;;;11.33;99.79;99963.69;3680978;78;32196;-86
2022/10/15 05:06:59;;;;;;;44.87;26.43;;;;;;;11.38;99.84;99966.05;3653728;78;99075;-87
2022/10/15 05:12:00;;;;;;;44.07;24.03;;;;;;;11.38;100.00;99949.52;3668379;78;32220;-88
2022/10/15 05:17:01;;;;;;;39.80;25.00;;;;;;;11.43;99.91;99941.44;3669531;78;99314;-88
2022/10/15 05:22:01;;;;;;;39.50;23.50;;;;;;;11.44;99.94;99943.81;3675299;78;32275;-89
2022/10/15 05:27:02;;;;;;;39.27;22.20;;;;;;;11.46;99.95;99951.08;3655755;78;98657;-88
2022/10/15 05:32:03;;;;;;;41.08;23.40;;;;;;;11.48;99.92;99941.05;3680430;78;32385;-88
2022/10/15 05:37:11;;;;;;;43.67;26.13;;;;;;;11.50;99.99;99939.47;3671938;78;98883;-87
2022/10/15 05:42:11;;;;;;;38.78;23.55;;;;;;;11.54;99.73;99951.88;3655981;78;31652;-89
2022/10/15 05:47:12;;;;;;;39.57;23.67;;;;;;;11.54;99.73;99951.88;3644872;78;99162;-90
2022/10/15 05:52:13;;;;;;;37.37;23.47;;;;;;;11.55;99.96;99949.34;3661103;78;26015;-86
2022/10/15 05:57:15;;;;;;;36.77;21.73;;;;;;;11.58;99.82;99952.66;3631039;79;98925;-90
2022/10/15 06:02:15;;;;;;;37.27;21.70;;;;;;;11.60;99.75;99948.94;3680279;78;26461;-90
2022/10/15 06:07:16;;;;;;;38.50;23.83;;;;;;;11.60;99.86;99945.61;3655041;78;99097;-89
2022/10/15 06:12:17;;;;;;;38.83;23.77;;;;;;;11.60;99.93;99950.31;3653194;79;34825;-91
2022/10/15 06:17:18;;;;;;;37.60;23.30;;;;;;;11.60;100.00;99947.56;3650333;79;99021;-89
2022/10/15 06:22:18;;;;;;;40.90;23.27;;;;;;;11.62;100.00;99943.84;3657846;79;34865;-87
2022/10/15 06:27:19;;;;;;;39.37;23.47;;;;;;;11.63;100.00;99941.27;3640215;78;99267;-88
2022/10/15 06:32:20;;;;;;;37.63;23.90;;;;;;;11.65;100.00;99941.08;3659810;79;30049;-95
2022/10/15 06:37:21;;;;;;;38.00;22.07;;;;;;;11.69;100.00;99943.24;3655304;79;99048;-93
2022/10/15 06:42:22;;;;;;;38.77;24.57;;;;;;;11.71;100.00;99969.81;3623121;79;26401;-95
2022/10/15 06:47:22;;;;;;;38.60;24.60;;;;;;;11.78;100.00;99979.45;3640508;79;98800;-92
2022/10/15 06:52:24;;;;;;;37.93;23.50;;;;;;;11.83;100.00;99973.53;3641237;79;33195;-96
2022/10/15 06:57:27;;;;;;;40.57;22.77;;;;;;;11.88;100.00;99970.37;3638347;79;99247;-93
2022/10/15 07:02:28;;;;;;;38.33;24.13;;;;;;;11.96;100.00;99976.09;3645572;78;27705;-92
2022/10/15 07:07:29;;;;;;;41.00;25.90;;;;;;;12.03;100.00;99981.59;3636584;79;98807;-96
2022/10/15 07:12:30;;;;;;;47.33;25.45;;;;;;;12.09;100.00;99986.89;3640752;79;27185;-95
2022/10/15 07:17:30;;;;;;;39.37;25.43;;;;;;;12.14;100.00;99982.34;3642512;77;98734;-89
2022/10/15 07:22:32;;;;;;;41.73;25.50;;;;;;;12.19;100.00;99984.70;3674245;78;32523;-88
2022/10/15 07:27:32;;;;;;;44.50;24.93;;;;;;;12.26;100.00;99990.19;3633321;79;99171;-88
2022/10/15 07:32:34;;;;;;;45.30;26.62;;;;;;;12.34;100.00;99985.45;3650464;79;32513;-90
2022/10/15 07:37:35;;;;;;;40.90;25.23;;;;;;;12.45;100.00;99984.23;3659000;79;99211;-89
2022/10/15 07:42:39;;;;;;;46.37;27.03;;;;;;;12.56;100.00;99980.84;3654686;78;27767;-88
2022/10/15 07:47:40;;;;;;;45.63;28.55;;;;;;;12.65;100.00;99971.52;3650697;78;99089;-87
2022/10/15 07:52:41;;;;;;;47.97;29.17;;;;;;;12.74;100.00;99969.11;3660736;78;29867;-89
2022/10/15 07:57:42;;;;;;;43.70;27.50;;;;;;;12.83;100.00;99971.43;3637308;79;99296;-92
2022/10/15 08:02:44;;;;;;;44.70;26.53;;;;;;;12.93;100.00;99976.11;3650738;79;26405;-89
2022/10/15 08:07:45;;;;;;;43.73;26.30;;;;;;;13.02;100.00;99968.21;3647443;79;99129;-89
2022/10/15 08:12:45;;;;;;;50.70;29.02;;;;;;;13.06;100.00;99966.19;3639313;79;27313;-88
2022/10/15 08:17:46;;;;;;;48.63;28.53;;;;;;;13.12;100.00;99968.13;3633612;79;99113;-89
2022/10/15 08:22:47;;;;;;;46.20;26.70;;;;;;;13.18;100.00;99972.03;3655175;79;26896;-89
2022/10/15 08:27:48;;;;;;;48.40;29.40;;;;;;;13.28;100.00;99974.53;3645958;79;99331;-87
2022/10/15 08:32:48;;;;;;;46.77;28.62;;;;;;;13.39;100.00;99983.52;3658799;79;26181;-89
2022/10/15 08:37:54;;;;;;;47.03;27.27;;;;;;;13.46;100.00;99976.58;3646379;79;99194;-89
2022/10/15 08:42:56;;;;;;;48.83;28.43;;;;;;;13.49;100.00;99985.42;3645671;79;26093;-88
2022/10/15 08:48:05;;;;;;;46.45;28.52;;;;;;;13.55;100.00;99983.22;3649580;79;99208;-89
2022/10/15 08:53:17;;;;;;;49.27;29.13;;;;;;;13.60;100.00;99994.42;3658834;79;26355;-89
2022/10/15 08:58:41;;;;;;;44.67;27.07;;;;;;;13.63;99.95;99997.77;3639656;79;99238;-88
2022/10/15 09:04:13;;;;;;;43.70;27.02;;;;;;;13.68;99.86;99991.19;3644167;79;26418;-88
2022/10/15 09:09:30;;;;;;;46.80;27.97;;;;;;;13.77;99.93;99987.38;3663852;78;99194;-87
2022/10/15 09:14:38;;;;;;;42.40;27.13;;;;;;;13.85;99.81;99990.25;3665705;78;26451;-89
2022/10/15 09:19:42;;;;;;;38.30;24.65;;;;;;;13.91;99.64;99989.98;3656772;78;98792;-88
2022/10/15 09:24:43;;;;;;;45.65;27.27;;;;;;;14.00;99.50;99994.45;3668737;78;26525;-88
2022/10/15 09:30:24;;;;;;;45.33;26.93;;;;;;;14.11;99.48;99999.91;3644560;78;98995;-90
2022/10/15 09:35:54;;;;;;;43.23;27.27;;;;;;;14.22;99.23;99997.84;3669455;78;26548;-91
2022/10/15 09:41:25;;;;;;;43.30;26.33;;;;;;;14.37;98.92;100000.04;3671061;79;98608;-87
2022/10/15 09:46:25;;;;;;;37.42;24.20;;;;;;;14.56;98.76;100005.56;3645874;79;99158;-90
2022/10/15 09:51:32;;;;;;;40.57;26.07;;;;;;;14.73;98.45;100003.17;3682347;78;25847;-91
2022/10/15 09:56:47;;;;;;;41.98;26.07;;;;;;;14.85;97.73;100007.58;3652850;78;99121;-90
2022/10/15 10:02:04;;;;;;;46.50;27.77;;;;;;;14.97;97.13;100013.94;3669805;79;26548;-90
2022/10/15 10:07:07;;;;;;;48.92;28.57;;;;;;;15.08;97.04;100017.34;3643875;79;99107;-88
2022/10/15 10:12:19;;;;;;;39.75;25.10;;;;;;;15.12;96.71;100020.06;3630061;79;26879;-88
2022/10/15 10:17:23;;;;;;;40.15;25.12;;;;;;;15.21;96.71;100014.19;3648242;79;99043;-88
2022/10/15 10:22:23;;;;;;;38.02;24.72;;;;;;;15.36;96.58;100020.36;3665915;79;25797;-90
2022/10/15 10:27:29;;;;;;;38.87;25.50;;;;;;;15.46;96.16;100013.27;3648061;78;99222;-88
2022/10/15 10:32:33;;;;;;;39.90;24.30;;;;;;;15.54;95.63;100020.88;3659631;79;25779;-88
2022/10/15 10:37:43;;;;;;;40.40;23.80;;;;;;;15.59;95.43;100013.47;3644482;79;99397;-87
2022/10/15 10:42:44;;;;;;;38.55;23.65;;;;;;;15.64;95.15;100008.21;3654029;79;25770;-87
2022/10/15 10:47:45;;;;;;;37.17;23.23;;;;;;;15.73;95.10;99999.34;3634807;79;99214;-88
2022/10/15 10:52:46;;;;;;;39.80;24.13;;;;;;;15.85;94.97;100004.29;3622863;79;32908;-89
2022/10/15 10:57:58;;;;;;;41.90;25.07;;;;;;;16.03;94.93;100009.72;3660545;79;99303;-92
2022/10/15 11:02:59;;;;;;;37.13;24.87;;;;;;;16.19;94.32;100011.84;3658917;78;26509;-94
2022/10/15 11:08:30;;;;;;;36.97;23.80;;;;;;;16.38;94.19;100013.25;3660850;79;99198;-89
2022/10/15 11:14:00;;;;;;;38.00;24.70;;;;;;;16.48;92.31;100017.86;3665415;79;26370;-89
2022/10/15 11:19:20;;;;;;;36.25;24.15;;;;;;;16.51;91.93;100014.20;3671326;79;99267;-88
2022/10/15 11:24:43;;;;;;;36.63;22.82;;;;;;;16.65;92.01;100010.37;3674048;79;26494;-89
2022/10/15 11:29:58;;;;;;;34.25;22.27;;;;;;;16.79;91.70;100004.53;3664316;78;99171;-88
2022/10/15 11:35:32;;;;;;;37.28;22.60;;;;;;;17.00;91.40;99995.75;3675344;79;26846;-92
2022/10/15 11:41:17;;;;;;;34.35;22.22;;;;;;;17.20;90.49;99988.92;3669535;79;98833;-91
2022/10/15 11:46:47;;;;;;;35.20;21.45;;;;;;;17.34;89.88;99985.80;3673322;78;100403;-88
2022/10/15 11:52:03;;;;;;;32.20;20.85;;;;;;;17.55;89.46;99992.91;3671922;79;26475;-92
2022/10/15 11:57:12;;;;;;;29.80;19.75;;;;;;;17.63;87.84;100008.20;3658815;79;98914;-88
2022/10/15 12:02:17;;;;;;;33.20;20.35;;;;;;;17.68;86.05;100013.25;3605925;80;25824;-89
2022/10/15 12:07:36;;;;;;;32.33;20.25;;;;;;;17.76;86.61;100000.11;3587323;80;98945;-90
2022/10/15 12:12:57;;;;;;;31.27;21.15;;;;;;;17.85;86.19;100002.28;3660884;79;26644;-88
2022/10/15 12:18:15;;;;;;;32.50;20.32;;;;;;;17.87;85.76;100002.02;3644109;79;99261;-93
2022/10/15 12:23:39;;;;;;;34.95;20.72;;;;;;;17.92;85.04;100003.52;3653412;79;26965;-91
2022/10/15 12:28:45;;;;;;;26.80;18.25;;;;;;;17.94;84.69;100006.02;3649296;79;99179;-89
2022/10/15 12:33:53;;;;;;;28.87;18.67;;;;;;;18.06;85.13;100003.94;3660232;79;26163;-89
2022/10/15 12:39:06;;;;;;;30.90;19.92;;;;;;;18.13;84.40;100001.55;3647293;78;99359;-91
2022/10/15 12:44:33;;;;;;;31.23;18.15;;;;;;;18.16;83.90;99988.92;3659209;79;26019;-87
2022/10/15 12:49:42;;;;;;;30.08;19.20;;;;;;;18.21;84.63;99987.63;3638131;79;98860;-93
2022/10/15 12:54:44;;;;;;;27.62;17.87;;;;;;;18.37;84.44;99986.23;3653818;79;25928;-89
2022/10/15 12:59:55;;;;;;;29.73;18.57;;;;;;;18.45;84.38;99979.22;3658209;78;98584;-90
2022/10/15 13:04:57;;;;;;;29.40;18.27;;;;;;;18.57;84.19;99979.86;3662983;78;26605;-86
2022/10/15 13:09:58;;;;;;;31.00;18.82;;;;;;;18.62;83.98;99978.73;3656340;79;98863;-88
2022/10/15 13:15:03;;;;;;;20.10;12.35;;;;;;;18.78;83.75;99988.41;3663929;78;25929;-90
2022/10/15 13:20:07;;;;;;;18.70;12.37;;;;;;;18.74;82.61;99987.73;3651859;79;98977;-91
2022/10/15 13:25:16;;;;;;;18.85;11.33;;;;;;;18.66;82.40;99993.95;3662193;78;25789;-93
2022/10/15 13:30:17;;;;;;;20.15;12.20;;;;;;;18.54;82.55;99985.71;3639203;79;98973;-91
2022/10/15 13:35:23;;;;;;;17.90;10.57;;;;;;;18.52;82.62;99982.59;3649188;78;26437;-90
2022/10/15 13:40:27;;;;;;;15.30;10.18;;;;;;;18.44;82.78;99984.63;3642115;79;98559;-89
2022/10/15 13:45:29;;;;;;;17.75;10.70;;;;;;;18.32;82.68;99976.38;3654430;79;25983;-88
2022/10/15 13:50:34;;;;;;;24.23;14.27;;;;;;;18.31;82.48;99986.56;3657396;78;98565;-90
2022/10/15 13:55:45;;;;;;;24.55;16.07;;;;;;;18.20;82.59;99984.67;3657585;79;26532;-88
2022/10/15 14:01:11;;;;;;;25.27;15.93;;;;;;;18.22;82.67;99989.98;3588989;79;98858;-89
2022/10/15 14:06:32;;;;;;;30.82;17.60;;;;;;;18.20;82.66;99993.80;3597911;80;98967;-89
2022/10/15 14:11:33;;;;;;;31.30;19.98;;;;;;;18.13;82.79;99998.17;3626760;80;26457;-90
2022/10/15 14:16:42;;;;;;;35.43;21.12;;;;;;;18.10;82.70;100002.45;3617465;80;98914;-88
2022/10/15 14:21:47;;;;;;;30.43;18.17;;;;;;;17.98;83.09;99998.36;3622877;80;25907;-91
2022/10/15 14:26:48;;;;;;;28.02;18.65;;;;;;;17.95;83.28;99996.47;3606491;80;99032;-90
2022/10/15 14:31:49;;;;;;;33.00;20.27;;;;;;;17.92;83.33;99998.72;3624391;80;26353;-89
2022/10/15 14:36:50;;;;;;;29.50;18.63;;;;;;;17.85;83.47;99999.50;3618495;80;99044;-89
2022/10/15 14:41:59;;;;;;;27.93;17.90;;;;;;;17.75;83.65;99981.86;3626505;80;32978;-88
2022/10/15 14:47:02;;;;;;;26.73;16.75;;;;;;;17.78;83.69;99992.13;3622768;79;98896;-87
2022/10/15 14:52:18;;;;;;;27.13;17.77;;;;;;;17.72;83.87;100004.22;3609459;80;25958;-89
2022/10/15 14:57:26;;;;;;;28.77;18.73;;;;;;;17.65;84.05;100008.57;3621087;80;98948;-89
2022/10/15 15:02:28;;;;;;;28.67;18.25;;;;;;;17.65;84.27;100000.98;3678576;80;25956;-91
2022/10/15 15:07:29;;;;;;;31.93;18.90;;;;;;;17.62;84.38;100011.61;3675842;79;99027;-89
2022/10/15 15:12:31;;;;;;;33.23;21.83;;;;;;;17.57;84.55;100001.59;3676495;79;25937;-89
2022/10/15 15:17:32;;;;;;;33.77;21.27;;;;;;;17.55;84.69;100007.59;3676035;78;99188;-88
2022/10/15 15:22:36;;;;;;;30.47;19.57;;;;;;;17.52;84.93;100002.11;3665017;80;25925;-89
2022/10/15 15:27:36;;;;;;;29.92;19.80;;;;;;;17.49;85.13;100016.91;3665559;80;99228;-89
2022/10/15 15:32:38;;;;;;;34.83;21.23;;;;;;;17.45;85.25;100010.01;3676473;80;25766;-88
2022/10/15 15:37:39;;;;;;;31.75;20.30;;;;;;;17.41;85.42;100014.89;3668624;79;99215;-93
2022/10/15 15:42:41;;;;;;;39.70;24.07;;;;;;;17.33;85.62;100011.28;3682729;80;31011;-89
2022/10/15 15:47:41;;;;;;;45.97;27.57;;;;;;;17.26;85.90;100018.38;3665938;80;99146;-90
2022/10/15 15:52:42;;;;;;;34.57;20.97;;;;;;;17.18;86.40;100033.67;3670154;80;28149;-92
2022/10/15 15:57:44;;;;;;;34.07;20.80;;;;;;;17.11;86.69;100038.00;3685399;80;99113;-90
2022/10/15 16:02:45;;;;;;;35.10;20.87;;;;;;;17.02;87.18;100038.59;3674532;78;33228;-91
2022/10/15 16:07:46;;;;;;;31.13;18.50;;;;;;;16.95;87.58;100047.05;3647537;79;99022;-89
2022/10/15 16:12:46;;;;;;;30.20;19.80;;;;;;;16.87;88.09;100048.42;3633180;79;33238;-90
2022/10/15 16:17:47;;;;;;;31.50;20.63;;;;;;;16.81;88.57;100050.73;3620953;80;99208;-90
2022/10/15 16:22:50;;;;;;;31.70;17.57;;;;;;;16.77;89.06;100063.31;3623961;80;33188;-90
2022/10/15 16:27:51;;;;;;;28.30;17.30;;;;;;;16.67;89.76;100060.13;3611716;81;99318;-88
2022/10/15 16:32:51;;;;;;;23.87;14.63;;;;;;;16.61;90.31;100064.63;3630335;81;32956;-89
2022/10/15 16:37:54;;;;;;;23.87;13.30;;;;;;;16.49;91.64;100077.76;3639470;79;99588;-89
2022/10/15 16:42:56;;;;;;;22.53;13.10;;;;;;;16.31;93.20;100075.88;3644636;79;32883;-89
2022/10/15 16:47:57;;;;;;;20.17;11.93;;;;;;;16.22;94.05;100085.95;3639675;79;99203;-89
2022/10/15 16:52:57;;;;;;;17.83;10.70;;;;;;;16.14;94.90;100086.66;3638127;79;32909;-89
2022/10/15 16:57:58;;;;;;;17.47;10.43;;;;;;;16.09;95.57;100086.38;3625894;80;99202;-88
2022/10/15 17:03:00;;;;;;;19.00;12.93;;;;;;;16.04;95.48;100079.91;3640747;79;33186;-90
2022/10/15 17:08:01;;;;;;;17.20;10.65;;;;;;;16.03;95.87;100090.22;3628936;79;99129;-89
2022/10/15 17:13:02;;;;;;;19.07;12.20;;;;;;;16.02;96.02;100097.60;3629073;80;33981;-89
2022/10/15 17:18:03;;;;;;;18.60;11.88;;;;;;;15.98;95.93;100097.64;3616110;79;99333;-89
2022/10/15 17:23:04;;;;;;;18.73;12.98;;;;;;;15.96;96.13;100093.12;3627122;80;33479;-89
2022/10/15 17:28:06;;;;;;;26.73;14.60;;;;;;;15.95;96.01;100105.44;3621435;79;99076;-88
2022/10/15 17:33:07;;;;;;;21.70;13.33;;;;;;;15.93;96.40;100109.24;3616213;80;25913;-89
2022/10/15 17:38:36;;;;;;;19.17;12.37;;;;;;;15.90;96.71;100116.20;3618110;80;99308;-89
2022/10/15 17:43:47;;;;;;;20.60;13.15;;;;;;;15.90;96.72;100117.59;3610539;80;33003;-89
2022/10/15 17:48:49;;;;;;;21.12;12.93;;;;;;;15.86;97.07;100116.89;3530972;80;99604;-88
2022/10/15 17:53:52;;;;;;;25.02;15.20;;;;;;;15.82;96.88;100121.11;3630400;80;32950;-88
2022/10/15 17:58:53;;;;;;;20.30;14.55;;;;;;;15.80;96.98;100126.89;3625202;80;99241;-89
2022/10/15 18:03:54;;;;;;;20.77;13.43;;;;;;;15.73;97.15;100137.48;3614338;79;25896;-89
2022/10/15 18:08:55;;;;;;;23.70;15.00;;;;;;;15.66;97.71;100143.73;3672149;80;99094;-91
2022/10/15 18:13:57;;;;;;;30.50;17.57;;;;;;;15.56;98.10;100153.78;3688695;79;25828;-90
2022/10/15 18:18:57;;;;;;;23.40;14.83;;;;;;;15.48;98.68;100150.13;3662961;80;99224;-91
2022/10/15 18:23:59;;;;;;;19.47;11.90;;;;;;;15.41;99.04;100148.23;3678956;79;31631;-89
2022/10/15 18:28:59;;;;;;;22.63;13.17;;;;;;;15.39;99.58;100160.34;3668712;80;99199;-89
2022/10/15 18:34:00;;;;;;;18.27;11.07;;;;;;;15.36;100.00;100161.78;3675175;80;32409;-90
2022/10/15 18:39:01;;;;;;;18.40;10.77;;;;;;;15.32;100.00;100154.84;3670077;80;99341;-90
2022/10/15 18:44:09;;;;;;;18.40;11.07;;;;;;;15.32;100.00;100162.39;3693401;80;32316;-90
2022/10/15 18:49:13;;;;;;;19.15;11.60;;;;;;;15.32;100.00;100171.48;3675195;80;99536;-90
2022/10/15 18:54:14;;;;;;;20.82;11.43;;;;;;;15.34;100.00;100173.88;3669675;80;33560;-90
2022/10/15 18:59:15;;;;;;;20.10;12.53;;;;;;;15.32;100.00;100178.41;3673414;80;99385;-89
2022/10/15 19:04:18;;;;;;;19.53;11.13;;;;;;;15.36;100.00;100179.81;3682133;80;31668;-88
2022/10/15 19:09:23;;;;;;;17.62;10.65;;;;;;;15.37;100.00;100176.59;3676472;79;99409;-89
2022/10/15 19:14:30;;;;;;;16.97;11.20;;;;;;;15.37;100.00;100182.14;3682646;80;25966;-91
2022/10/15 19:19:29;;;;;;;17.95;10.85;;;;;;;15.37;100.00;100191.84;3674891;80;99371;-90
2022/10/15 19:24:30;;;;;;;18.63;9.83;;;;;;;15.36;100.00;100188.89;3692281;80;26476;-91
2022/10/15 19:29:30;;;;;;;18.80;10.90;;;;;;;15.37;100.00;100194.62;3667927;80;99122;-89
2022/10/15 19:34:34;;;;;;;16.67;10.13;;;;;;;15.39;100.00;100195.02;3694260;79;32002;-88
2022/10/15 19:39:35;;;;;;;14.78;9.05;;;;;;;15.37;100.00;100195.23;3684621;80;99279;-90
2022/10/15 19:44:35;;;;;;;14.57;8.50;;;;;;;15.40;100.00;100206.87;3675323;80;28621;-92
2022/10/15 19:49:36;;;;;;;16.93;10.40;;;;;;;15.39;100.00;100208.88;3676786;80;98950;-89
2022/10/15 19:54:37;;;;;;;16.77;9.60;;;;;;;15.38;100.00;100212.05;3673745;80;32239;-90
2022/10/15 19:59:38;;;;;;;17.40;9.83;;;;;;;15.38;100.00;100210.05;3673580;80;98834;-91
2022/10/15 20:04:38;;;;;;;19.47;9.63;;;;;;;15.38;100.00;100207.28;3671775;79;32353;-92
2022/10/15 20:09:39;;;;;;;17.50;9.83;;;;;;;15.38;100.00;100200.34;3667493;80;98915;-91
2022/10/15 20:14:40;;;;;;;21.60;11.33;;;;;;;15.37;100.00;100200.17;3669978;80;32301;-90
2022/10/15 20:19:41;;;;;;;18.20;11.17;;;;;;;15.34;100.00;100212.11;3675452;79;99327;-88
2022/10/15 20:24:42;;;;;;;20.30;12.50;;;;;;;15.28;100.00;100216.50;3674653;80;29520;-89
2022/10/15 20:29:42;;;;;;;17.80;11.00;;;;;;;15.24;100.00;100228.81;3669884;80;98871;-89
2022/10/15 20:34:43;;;;;;;22.17;13.40;;;;;;;15.16;100.00;100219.78;3676402;80;26527;-89
2022/10/15 20:39:44;;;;;;;23.63;13.03;;;;;;;15.08;100.00;100222.45;3671127;80;99385;-88
2022/10/15 20:44:45;;;;;;;22.43;13.40;;;;;;;15.04;100.00;100226.47;3682286;80;34679;-89
2022/10/15 20:49:49;;;;;;;23.33;15.07;;;;;;;14.97;100.00;100237.61;3670733;80;99209;-89
2022/10/15 20:54:53;;;;;;;23.73;14.70;;;;;;;14.89;100.00;100229.95;3677273;80;26931;-89
2022/10/15 20:59:54;;;;;;;24.45;15.18;;;;;;;14.80;100.00;100242.72;3651853;80;99128;-89
2022/10/15 21:04:55;;;;;;;29.03;19.43;;;;;;;14.72;100.00;100243.38;3696190;80;28916;-89
2022/10/15 21:09:57;;;;;;;27.37;17.57;;;;;;;14.63;100.00;100243.66;3641337;79;98875;-89
2022/10/15 21:14:58;;;;;;;31.07;20.73;;;;;;;14.52;100.00;100241.58;3615868;79;26888;-88
2022/10/15 21:19:59;;;;;;;34.67;21.42;;;;;;;14.42;100.00;100243.23;3611404;79;99346;-90
2022/10/15 21:25:00;;;;;;;33.57;21.30;;;;;;;14.33;100.00;100229.67;3620018;79;25887;-89
2022/10/15 21:30:01;;;;;;;34.83;23.73;;;;;;;14.22;100.00;100240.80;3621820;79;98929;-89
2022/10/15 21:35:02;;;;;;;33.83;22.23;;;;;;;14.16;100.00;100252.66;3601299;79;26767;-89
2022/10/15 21:40:06;;;;;;;35.73;22.75;;;;;;;14.08;100.00;100258.86;3613505;79;98792;-90
2022/10/15 21:45:08;;;;;;;35.55;21.97;;;;;;;14.01;100.00;100269.95;3614318;79;32200;-88
2022/10/15 21:50:09;;;;;;;37.67;23.70;;;;;;;13.95;100.00;100282.63;3616666;80;98894;-88
2022/10/15 21:55:10;;;;;;;36.03;23.13;;;;;;;13.91;100.00;100297.69;3617988;80;26530;-87
2022/10/15 22:00:14;;;;;;;37.27;23.30;;;;;;;13.87;100.00;100297.70;3605396;81;99107;-88
2022/10/15 22:05:15;;;;;;;35.00;22.85;;;;;;;13.83;100.00;100299.69;3619173;80;31611;-86
2022/10/15 22:10:16;;;;;;;39.80;25.70;;;;;;;13.81;100.00;100303.47;3618122;80;99247;-87
2022/10/15 22:15:17;;;;;;;36.27;21.83;;;;;;;13.80;100.00;100303.86;3616102;79;26692;-86
2022/10/15 22:20:18;;;;;;;33.90;22.25;;;;;;;13.80;100.00;100303.25;3605582;81;99078;-87
2022/10/15 22:25:20;;;;;;;39.17;25.23;;;;;;;13.80;100.00;100312.92;3611445;80;36129;-86
2022/10/15 22:30:23;;;;;;;41.13;25.70;;;;;;;13.80;100.00;100311.55;3618677;80;99492;-88
2022/10/15 22:35:24;;;;;;;36.55;23.10;;;;;;;13.81;100.00;100315.91;3630455;80;32316;-88
2022/10/15 22:40:24;;;;;;;34.23;23.40;;;;;;;13.72;100.00;100297.56;3618261;79;99501;-88
2022/10/15 22:45:25;;;;;;;35.53;22.83;;;;;;;13.87;100.00;100319.84;3630108;80;26049;-88
2022/10/15 22:50:26;;;;;;;36.77;24.23;;;;;;;13.88;100.00;100314.50;3631271;80;99279;-88
2022/10/15 22:55:27;;;;;;;37.33;25.27;;;;;;;13.89;100.00;100320.22;3633083;80;34920;-89
2022/10/15 23:00:28;;;;;;;36.30;23.60;;;;;;;13.91;100.00;100316.44;3621069;80;99249;-89
2022/10/15 23:05:29;;;;;;;34.93;21.67;;;;;;;13.90;100.00;100323.17;3609903;80;34835;-89